CMA CGM Columba — 2DBC9 — position and weather

sailwx.info

Track history (hours):
 
Tides and Currents Weather Stations Pressure Air Temp Water Temp Dewpoint Dewpoint Depression Visibility Wind Speed Wind Dir Waves Ship Positions

CMA CGM Columba

Last reported at 2014-Dec-20 08:31 UTC. Time now 2014-Dec-21 08:32 UTC.
Position N 36°00' E 120°24'.

Length 363 m; draft 12.9 m.

Type: Ship (hazmat cat A). MMSI: 235077448.

Date/timePositionNaut miles runAvg speedWind from/ knotsBaromVisibWave heightAir tempDewpointWater temp
2014-Dec-20 08:31N 36°00' E 120°24'10 7.7
2014-Dec-20 07:15N 36°00' E 120°12'0 0.0
2014-Dec-20 01:13N 36°00' E 120°12'0 0.0
2014-Dec-20 00:31N 36°00' E 120°12'0 0.0
2014-Dec-19 23:19N 36°00' E 120°12'0 0.0
2014-Dec-19 22:31N 36°00' E 120°12'0 0.0
2014-Dec-19 21:31N 36°00' E 120°12'0 0.0
2014-Dec-19 18:25N 36°00' E 120°12'0 0.0
2014-Dec-19 17:13N 36°00' E 120°12'0 0.0
2014-Dec-19 11:32N 36°00' E 120°12'6 6.3
2014-Dec-19 10:32N 36°02' E 120°20'11 9.2
2014-Dec-19 09:19N 35°59' E 120°33'810.3
2014-Dec-19 08:33N 35°58' E 120°42'  
2014-Dec-13 22:33N 38°57' E 121°57'7 7.1
2014-Dec-13 21:33N 38°50' E 121°55'1616.2
2014-Dec-13 20:33N 38°36' E 121°46'1515.3
2014-Dec-13 19:33N 38°31' E 121°27'15116.5
2014-Dec-13 10:25N 38°50' E 118°15'1213.4
2014-Dec-13 09:33N 38°56' E 118°02'1211.6
2014-Dec-13 08:33N 38°59' E 117°48'1 0.5
2014-Dec-13 07:22N 38°59' E 117°47'0 0.0
2014-Dec-13 06:16N 38°59' E 117°47'0 0.0
2014-Dec-13 05:28N 38°59' E 117°47'0 0.0
2014-Dec-13 04:28N 38°59' E 117°47'0 0.0
2014-Dec-13 03:16N 38°59' E 117°47'0 0.0
2014-Dec-13 02:28N 38°59' E 117°47'0 0.0
2014-Dec-13 01:10N 38°59' E 117°47'0 0.0
2014-Dec-13 00:28N 38°59' E 117°47'0 0.0
2014-Dec-12 23:22N 38°59' E 117°47'0 0.0
2014-Dec-12 22:22N 38°59' E 117°47'0 0.0
2014-Dec-12 21:28N 38°59' E 117°47'0 0.0
2014-Dec-12 20:28N 38°59' E 117°47'0 0.0
2014-Dec-12 19:10N 38°59' E 117°47'0 0.0
2014-Dec-12 18:22N 38°59' E 117°47'0 0.0
2014-Dec-12 17:28N 38°59' E 117°47'0 0.0
2014-Dec-12 16:28N 38°59' E 117°47'0 0.0
2014-Dec-12 15:22N 38°59' E 117°47'0 0.0
2014-Dec-12 14:28N 38°59' E 117°47'0 0.0
2014-Dec-12 13:22N 38°59' E 117°47'0 0.0
2014-Dec-12 12:22N 38°59' E 117°47'0 0.0
2014-Dec-12 11:28N 38°59' E 117°47'0 0.0
2014-Dec-12 10:28N 38°59' E 117°47'0 0.0
2014-Dec-12 09:10N 38°59' E 117°47'0 0.0
2014-Dec-12 08:28N 38°59' E 117°47'0 0.0
2014-Dec-12 07:22N 38°59' E 117°47'0 0.0
2014-Dec-12 06:22N 38°59' E 117°47'0 0.0
2014-Dec-12 05:28N 38°59' E 117°47'0 0.0
2014-Dec-12 04:22N 38°59' E 117°47'0 0.0
2014-Dec-12 03:28N 38°59' E 117°47'0 0.0
2014-Dec-12 02:28N 38°59' E 117°47'0 0.0
2014-Dec-12 01:28N 38°59' E 117°47'0 0.0
2014-Dec-12 00:28N 38°59' E 117°47'0 0.0
2014-Dec-11 23:10N 38°59' E 117°47'0 0.0
2014-Dec-11 22:28N 38°59' E 117°47'0 0.0
2014-Dec-11 21:28N 38°59' E 117°47'0 0.0
2014-Dec-11 20:28N 38°59' E 117°47'0 0.0
2014-Dec-11 19:28N 38°59' E 117°47'0 0.0
2014-Dec-11 18:28N 38°59' E 117°47'0 0.0
2014-Dec-11 17:16N 38°59' E 117°47'0 0.0
2014-Dec-11 16:28N 38°59' E 117°47'0 0.0
2014-Dec-11 15:16N 38°59' E 117°47'0 0.0
2014-Dec-11 14:30N 38°59' E 117°47'0 0.0
2014-Dec-11 13:21N 38°59' E 117°47'0 0.0
2014-Dec-11 11:29N 38°59' E 117°47'0 0.0
2014-Dec-11 10:11N 38°59' E 117°47'0 0.0
2014-Dec-11 09:29N 38°59' E 117°47'0 0.0
2014-Dec-11 08:29N 38°59' E 117°47'0 0.0
2014-Dec-11 07:11N 38°59' E 117°47'0 0.1
2014-Dec-11 06:33N 38°59' E 117°47'7 7.3
2014-Dec-11 05:33N 38°57' E 117°56'9 8.7
2014-Dec-11 04:33N 38°55' E 118°07'5 1.7
2014-Dec-11 01:26N 38°50' E 118°10'0 0.0
2014-Dec-11 00:08N 38°50' E 118°10'0 0.0
2014-Dec-10 23:14N 38°50' E 118°10'0 0.1
2014-Dec-10 22:26N 38°50' E 118°10'0 0.2
2014-Dec-10 21:33N 38°50' E 118°10'  
Track history (hours):
 
Tides and Currents Weather Stations Pressure Air Temp Water Temp Dewpoint Dewpoint Depression Visibility Wind Speed Wind Dir Waves Ship Positions

CMA CGM Columba

Last reported at 2014-Dec-20 08:31 UTC. Time now 2014-Dec-21 08:32 UTC.
Position N 36°00' E 120°24'.

Length 363 m; draft 12.9 m.

Type: Ship (hazmat cat A). MMSI: 235077448.

Date/timePositionNaut miles runAvg speedWind from/ knotsBaromVisibWave heightAir tempDewpointWater temp
2014-Dec-20 08:31N 36°00' E 120°24'10 7.7
2014-Dec-20 07:15N 36°00' E 120°12'0 0.0
2014-Dec-20 01:13N 36°00' E 120°12'0 0.0
2014-Dec-20 00:31N 36°00' E 120°12'0 0.0
2014-Dec-19 23:19N 36°00' E 120°12'0 0.0
2014-Dec-19 22:31N 36°00' E 120°12'0 0.0
2014-Dec-19 21:31N 36°00' E 120°12'0 0.0
2014-Dec-19 18:25N 36°00' E 120°12'0 0.0
2014-Dec-19 17:13N 36°00' E 120°12'0 0.0
2014-Dec-19 11:32N 36°00' E 120°12'6 6.3
2014-Dec-19 10:32N 36°02' E 120°20'11 9.2
2014-Dec-19 09:19N 35°59' E 120°33'810.3
2014-Dec-19 08:33N 35°58' E 120°42'  
2014-Dec-13 22:33N 38°57' E 121°57'7 7.1
2014-Dec-13 21:33N 38°50' E 121°55'1616.2
2014-Dec-13 20:33N 38°36' E 121°46'1515.3
2014-Dec-13 19:33N 38°31' E 121°27'15116.5
2014-Dec-13 10:25N 38°50' E 118°15'1213.4
2014-Dec-13 09:33N 38°56' E 118°02'1211.6
2014-Dec-13 08:33N 38°59' E 117°48'1 0.5
2014-Dec-13 07:22N 38°59' E 117°47'0 0.0
2014-Dec-13 06:16N 38°59' E 117°47'0 0.0
2014-Dec-13 05:28N 38°59' E 117°47'0 0.0
2014-Dec-13 04:28N 38°59' E 117°47'0 0.0
2014-Dec-13 03:16N 38°59' E 117°47'0 0.0
2014-Dec-13 02:28N 38°59' E 117°47'0 0.0
2014-Dec-13 01:10N 38°59' E 117°47'0 0.0
2014-Dec-13 00:28N 38°59' E 117°47'0 0.0
2014-Dec-12 23:22N 38°59' E 117°47'0 0.0
2014-Dec-12 22:22N 38°59' E 117°47'0 0.0
2014-Dec-12 21:28N 38°59' E 117°47'0 0.0
2014-Dec-12 20:28N 38°59' E 117°47'0 0.0
2014-Dec-12 19:10N 38°59' E 117°47'0 0.0
2014-Dec-12 18:22N 38°59' E 117°47'0 0.0
2014-Dec-12 17:28N 38°59' E 117°47'0 0.0
2014-Dec-12 16:28N 38°59' E 117°47'0 0.0
2014-Dec-12 15:22N 38°59' E 117°47'0 0.0
2014-Dec-12 14:28N 38°59' E 117°47'0 0.0
2014-Dec-12 13:22N 38°59' E 117°47'0 0.0
2014-Dec-12 12:22N 38°59' E 117°47'0 0.0
2014-Dec-12 11:28N 38°59' E 117°47'0 0.0
2014-Dec-12 10:28N 38°59' E 117°47'0 0.0
2014-Dec-12 09:10N 38°59' E 117°47'0 0.0
2014-Dec-12 08:28N 38°59' E 117°47'0 0.0
2014-Dec-12 07:22N 38°59' E 117°47'0 0.0
2014-Dec-12 06:22N 38°59' E 117°47'0 0.0
2014-Dec-12 05:28N 38°59' E 117°47'0 0.0
2014-Dec-12 04:22N 38°59' E 117°47'0 0.0
2014-Dec-12 03:28N 38°59' E 117°47'0 0.0
2014-Dec-12 02:28N 38°59' E 117°47'0 0.0
2014-Dec-12 01:28N 38°59' E 117°47'0 0.0
2014-Dec-12 00:28N 38°59' E 117°47'0 0.0
2014-Dec-11 23:10N 38°59' E 117°47'0 0.0
2014-Dec-11 22:28N 38°59' E 117°47'0 0.0
2014-Dec-11 21:28N 38°59' E 117°47'0 0.0
2014-Dec-11 20:28N 38°59' E 117°47'0 0.0
2014-Dec-11 19:28N 38°59' E 117°47'0 0.0
2014-Dec-11 18:28N 38°59' E 117°47'0 0.0
2014-Dec-11 17:16N 38°59' E 117°47'0 0.0
2014-Dec-11 16:28N 38°59' E 117°47'0 0.0
2014-Dec-11 15:16N 38°59' E 117°47'0 0.0
2014-Dec-11 14:30N 38°59' E 117°47'0 0.0
2014-Dec-11 13:21N 38°59' E 117°47'0 0.0
2014-Dec-11 11:29N 38°59' E 117°47'0 0.0
2014-Dec-11 10:11N 38°59' E 117°47'0 0.0
2014-Dec-11 09:29N 38°59' E 117°47'0 0.0
2014-Dec-11 08:29N 38°59' E 117°47'0 0.0
2014-Dec-11 07:11N 38°59' E 117°47'0 0.1
2014-Dec-11 06:33N 38°59' E 117°47'7 7.3
2014-Dec-11 05:33N 38°57' E 117°56'9 8.7
2014-Dec-11 04:33N 38°55' E 118°07'5 1.7
2014-Dec-11 01:26N 38°50' E 118°10'0 0.0
2014-Dec-11 00:08N 38°50' E 118°10'0 0.0
2014-Dec-10 23:14N 38°50' E 118°10'0 0.1
2014-Dec-10 22:26N 38°50' E 118°10'0 0.2
2014-Dec-10 21:33N 38°50' E 118°10'  

Dump ship's entire track history